createdAt,value
2022-07-29T00:00:40.490Z,9.80
2022-07-29T00:01:40.442Z,11.00
2022-07-29T00:02:40.532Z,9.30
2022-07-29T00:03:40.477Z,10.80
2022-07-29T00:04:40.502Z,10.80
2022-07-29T00:05:40.424Z,8.70
2022-07-29T00:06:40.395Z,10.30
2022-07-29T00:07:40.384Z,11.10
2022-07-29T00:08:40.375Z,9.40
2022-07-29T00:09:50.685Z,11.10
2022-07-29T00:10:40.382Z,10.10
2022-07-29T00:11:40.339Z,10.20
2022-07-29T00:12:40.334Z,8.40
2022-07-29T00:13:40.319Z,8.80
2022-07-29T00:14:40.313Z,9.40
2022-07-29T00:15:40.320Z,8.80
2022-07-29T00:16:40.361Z,10.00
2022-07-29T00:17:40.279Z,10.30
2022-07-29T00:18:40.271Z,8.10
2022-07-29T00:19:43.798Z,9.30
2022-07-29T00:20:40.282Z,9.30
2022-07-29T00:21:40.238Z,10.10
2022-07-29T00:22:40.233Z,10.50
2022-07-29T00:23:40.216Z,9.50
2022-07-29T00:24:40.210Z,9.10
2022-07-29T00:25:40.229Z,11.80
2022-07-29T00:26:40.199Z,10.60
2022-07-29T00:27:40.174Z,10.50
2022-07-29T00:28:40.171Z,10.60
2022-07-29T00:29:40.159Z,9.50
2022-07-29T00:30:40.174Z,12.50
2022-07-29T00:31:40.170Z,9.50
2022-07-29T00:32:40.130Z,9.30
2022-07-29T00:33:40.116Z,9.50
2022-07-29T00:34:40.112Z,11.90
2022-07-29T00:35:40.114Z,11.80
2022-07-29T00:36:40.088Z,11.00
2022-07-29T00:37:40.075Z,10.20
2022-07-29T00:38:40.068Z,9.80
2022-07-29T00:39:40.099Z,11.00
2022-07-29T00:40:40.068Z,11.30
2022-07-29T00:41:40.023Z,10.40
2022-07-29T00:42:40.015Z,12.00
2022-07-29T00:43:40.000Z,10.80
2022-07-29T00:44:40.000Z,11.00
2022-07-29T00:45:40.003Z,12.10
2022-07-29T00:46:40.028Z,11.70
2022-07-29T00:47:39.960Z,12.90
2022-07-29T00:48:40.000Z,10.20
2022-07-29T00:49:39.942Z,11.70
2022-07-29T00:50:39.957Z,11.20
2022-07-29T00:51:39.921Z,11.50
2022-07-29T00:52:39.918Z,11.30
2022-07-29T00:53:39.897Z,10.80
2022-07-29T00:54:44.216Z,11.30
2022-07-29T00:55:39.913Z,12.80
2022-07-29T00:56:39.879Z,11.60
2022-07-29T00:57:39.857Z,12.40
2022-07-29T00:58:39.853Z,9.80
2022-07-29T00:59:39.858Z,11.40
2022-07-29T01:00:39.955Z,11.50
2022-07-29T01:01:39.901Z,11.30
2022-07-29T01:02:39.810Z,11.40
2022-07-29T01:03:39.795Z,11.20
2022-07-29T01:04:39.792Z,13.10
2022-07-29T01:05:50.741Z,12.40
2022-07-29T01:06:39.787Z,10.60
2022-07-29T01:07:39.754Z,12.90
2022-07-29T01:08:39.749Z,12.00
2022-07-29T01:09:46.457Z,12.70
2022-07-29T01:10:39.769Z,11.20
2022-07-29T01:11:39.715Z,12.40
2022-07-29T01:12:39.710Z,11.70
2022-07-29T01:13:39.695Z,14.10
2022-07-29T01:14:39.694Z,13.60
2022-07-29T01:15:39.704Z,10.90
2022-07-29T01:16:39.719Z,11.70
2022-07-29T01:17:39.653Z,12.70
2022-07-29T01:18:39.656Z,12.50
2022-07-29T01:19:39.632Z,11.20
2022-07-29T01:20:39.652Z,10.70
2022-07-29T01:21:39.615Z,10.50
2022-07-29T01:22:39.609Z,13.00
2022-07-29T01:23:39.593Z,12.80
2022-07-29T01:24:39.592Z,11.00
2022-07-29T01:25:39.593Z,13.10
2022-07-29T01:26:39.566Z,11.70
2022-07-29T01:27:39.549Z,10.60
2022-07-29T01:28:39.547Z,10.70
2022-07-29T01:29:40.517Z,10.60
2022-07-29T01:30:39.550Z,12.30
2022-07-29T01:31:46.403Z,12.30
2022-07-29T01:32:39.508Z,14.20
2022-07-29T01:33:39.489Z,12.20
2022-07-29T01:34:39.490Z,12.10
2022-07-29T01:35:39.496Z,12.60
2022-07-29T01:36:39.465Z,12.80
2022-07-29T01:37:39.452Z,12.70
2022-07-29T01:38:39.443Z,11.50
2022-07-29T01:39:39.427Z,12.60
2022-07-29T01:40:39.450Z,12.20
2022-07-29T01:41:39.410Z,13.20
2022-07-29T01:42:39.406Z,12.70
2022-07-29T01:43:39.386Z,11.80
2022-07-29T01:44:39.394Z,12.70
2022-07-29T01:45:39.400Z,12.70
2022-07-29T01:46:39.411Z,10.20
2022-07-29T01:47:39.349Z,12.90
2022-07-29T01:48:39.406Z,11.30
2022-07-29T01:49:39.328Z,10.90
2022-07-29T01:50:39.345Z,13.00
2022-07-29T01:51:39.305Z,13.20
2022-07-29T01:52:39.300Z,11.90
2022-07-29T01:53:39.288Z,12.60
2022-07-29T01:54:39.279Z,11.90
2022-07-29T01:55:39.289Z,13.70
2022-07-29T01:56:39.257Z,11.20
2022-07-29T01:57:39.251Z,13.50
2022-07-29T01:58:39.240Z,11.30
2022-07-29T01:59:39.225Z,11.20
2022-07-29T02:00:39.242Z,10.70
2022-07-29T02:01:39.243Z,12.20
2022-07-29T02:02:39.198Z,12.40
2022-07-29T02:03:39.187Z,12.30
2022-07-29T02:04:39.220Z,13.70
2022-07-29T02:05:39.184Z,13.00
2022-07-29T02:06:39.159Z,10.90
2022-07-29T02:07:39.145Z,11.10
2022-07-29T02:08:39.137Z,12.60
2022-07-29T02:09:39.127Z,11.70
2022-07-29T02:10:39.144Z,13.10
2022-07-29T02:11:39.103Z,11.50
2022-07-29T02:12:39.118Z,14.30
2022-07-29T02:13:39.078Z,12.60
2022-07-29T02:14:39.075Z,12.20
2022-07-29T02:15:39.162Z,12.70
2022-07-29T02:16:39.208Z,12.90
2022-07-29T02:17:39.045Z,15.00
2022-07-29T02:18:39.037Z,10.60
2022-07-29T02:19:39.028Z,12.10
2022-07-29T02:20:39.041Z,13.10
2022-07-29T02:21:39.001Z,13.50
2022-07-29T02:22:38.994Z,12.50
2022-07-29T02:23:45.298Z,12.50
2022-07-29T02:24:38.980Z,15.80
2022-07-29T02:25:38.979Z,12.30
2022-07-29T02:26:38.954Z,14.10
2022-07-29T02:27:38.940Z,11.00
2022-07-29T02:28:38.931Z,12.60
2022-07-29T02:29:38.916Z,12.30
2022-07-29T02:30:38.936Z,12.00
2022-07-29T02:31:38.985Z,12.30
2022-07-29T02:32:38.890Z,12.70
2022-07-29T02:33:38.878Z,12.90
2022-07-29T02:34:38.871Z,12.80
2022-07-29T02:35:38.879Z,15.00
2022-07-29T02:36:38.852Z,13.60
2022-07-29T02:37:38.835Z,11.70
2022-07-29T02:38:38.829Z,12.60
2022-07-29T02:39:38.821Z,11.80
2022-07-29T02:40:38.831Z,13.10
2022-07-29T02:41:38.798Z,13.30
2022-07-29T02:42:38.789Z,13.20
2022-07-29T02:43:38.775Z,14.50
2022-07-29T02:44:38.768Z,13.10
2022-07-29T02:45:38.799Z,13.20
2022-07-29T02:46:38.799Z,12.30
2022-07-29T02:47:41.505Z,12.00
2022-07-29T02:48:38.780Z,13.30
2022-07-29T02:49:38.732Z,15.50
2022-07-29T02:50:38.743Z,14.50
2022-07-29T02:51:41.427Z,14.60
2022-07-29T02:52:38.707Z,13.40
2022-07-29T02:53:38.686Z,14.60
2022-07-29T02:54:38.682Z,13.00
2022-07-29T02:55:38.691Z,15.40
2022-07-29T02:56:38.668Z,15.20
2022-07-29T02:57:54.104Z,16.90
2022-07-29T02:58:38.642Z,15.10
2022-07-29T02:59:38.623Z,13.30
2022-07-29T03:00:38.639Z,13.40
2022-07-29T03:01:38.643Z,14.50
2022-07-29T03:02:38.597Z,15.50
2022-07-29T03:03:38.583Z,14.60
2022-07-29T03:04:38.600Z,15.30
2022-07-29T03:05:38.583Z,13.90
2022-07-29T03:06:39.020Z,13.80
2022-07-29T03:07:38.540Z,14.60
2022-07-29T03:08:38.532Z,14.20
2022-07-29T03:09:38.520Z,14.80
2022-07-29T03:10:38.535Z,13.00
2022-07-29T03:11:42.417Z,14.00
2022-07-29T03:12:38.504Z,15.80
2022-07-29T03:13:38.477Z,14.00
2022-07-29T03:14:38.475Z,13.50
2022-07-29T03:15:38.539Z,13.00
2022-07-29T03:16:41.241Z,15.70
2022-07-29T03:17:38.434Z,13.50
2022-07-29T03:18:38.434Z,12.70
2022-07-29T03:19:38.418Z,15.40
2022-07-29T03:20:38.438Z,14.10
2022-07-29T03:21:38.395Z,14.70
2022-07-29T03:22:38.389Z,15.20
2022-07-29T03:23:38.375Z,14.90
2022-07-29T03:24:38.369Z,15.90
2022-07-29T03:25:38.380Z,14.20
2022-07-29T03:26:38.354Z,14.60
2022-07-29T03:27:38.335Z,16.40
2022-07-29T03:28:38.328Z,16.00
2022-07-29T03:29:38.315Z,16.30
2022-07-29T03:30:38.330Z,16.60
2022-07-29T03:31:38.348Z,17.10
2022-07-29T03:32:38.287Z,17.10
2022-07-29T03:33:38.274Z,16.30
2022-07-29T03:34:38.272Z,16.70
2022-07-29T03:35:38.275Z,17.30
2022-07-29T03:36:38.255Z,14.80
2022-07-29T03:37:38.232Z,16.10
2022-07-29T03:38:38.224Z,16.50
2022-07-29T03:39:38.219Z,16.50
2022-07-29T03:40:38.227Z,18.40
2022-07-29T03:41:38.198Z,17.20
2022-07-29T03:42:38.184Z,17.50
2022-07-29T03:43:38.176Z,18.70
2022-07-29T03:44:38.167Z,16.70
2022-07-29T03:45:38.178Z,16.30
2022-07-29T03:46:38.273Z,16.20
2022-07-29T03:47:49.727Z,17.40
2022-07-29T03:48:38.174Z,17.80
2022-07-29T03:49:38.113Z,17.40
2022-07-29T03:50:38.119Z,17.10
2022-07-29T03:51:38.101Z,17.80
2022-07-29T03:52:38.085Z,15.50
2022-07-29T03:53:38.076Z,18.20
2022-07-29T03:54:38.057Z,16.70
2022-07-29T03:55:38.070Z,17.70
2022-07-29T03:56:38.038Z,17.60
2022-07-29T03:57:38.030Z,19.00
2022-07-29T03:58:38.018Z,16.10
2022-07-29T03:59:38.009Z,17.10
2022-07-29T04:00:38.016Z,18.30
2022-07-29T04:01:38.033Z,19.10
2022-07-29T04:02:37.980Z,15.90
2022-07-29T04:03:38.036Z,15.00
2022-07-29T04:04:37.956Z,15.80
2022-07-29T04:05:37.975Z,13.00
2022-07-29T04:06:37.937Z,12.40
2022-07-29T04:07:37.929Z,14.80
2022-07-29T04:08:37.915Z,14.20
2022-07-29T04:09:37.907Z,11.80
2022-07-29T04:10:37.918Z,13.20
2022-07-29T04:12:03.511Z,14.30
2022-07-29T04:12:37.881Z,14.50
2022-07-29T04:13:37.867Z,13.60
2022-07-29T04:14:37.855Z,14.10
2022-07-29T04:15:37.900Z,15.10
2022-07-29T04:16:37.831Z,13.50
2022-07-29T04:17:37.826Z,14.40
2022-07-29T04:18:37.811Z,13.50
2022-07-29T04:19:37.806Z,13.20
2022-07-29T04:20:37.811Z,15.00
2022-07-29T04:21:37.785Z,13.40
2022-07-29T04:22:37.777Z,14.50
2022-07-29T04:23:47.491Z,14.00
2022-07-29T04:24:37.757Z,13.80
2022-07-29T04:25:37.765Z,14.50
2022-07-29T04:26:37.731Z,14.30
2022-07-29T04:27:37.723Z,12.90
2022-07-29T04:28:37.708Z,11.70
2022-07-29T04:29:37.701Z,14.60
2022-07-29T04:30:37.714Z,13.50
2022-07-29T04:31:37.763Z,13.80
2022-07-29T04:32:37.674Z,14.90
2022-07-29T04:33:37.663Z,12.30
2022-07-29T04:34:37.649Z,15.50
2022-07-29T04:35:38.662Z,11.90
2022-07-29T04:36:37.635Z,14.90
2022-07-29T04:37:37.619Z,11.90
2022-07-29T04:38:37.604Z,14.10
2022-07-29T04:39:37.614Z,14.20
2022-07-29T04:40:38.616Z,15.40
2022-07-29T04:41:37.580Z,13.90
2022-07-29T04:42:42.006Z,13.30
2022-07-29T04:43:37.565Z,17.20
2022-07-29T04:44:39.715Z,13.50
2022-07-29T04:45:37.571Z,13.80
2022-07-29T04:46:37.708Z,16.90
2022-07-29T04:47:37.521Z,16.10
2022-07-29T04:48:37.583Z,14.20
2022-07-29T04:49:37.499Z,14.20
2022-07-29T04:50:37.503Z,14.70
2022-07-29T04:51:37.486Z,16.50
2022-07-29T04:52:37.475Z,16.80
2022-07-29T04:53:37.455Z,14.90
2022-07-29T04:54:37.442Z,17.00
2022-07-29T04:55:38.841Z,15.70
2022-07-29T04:56:37.986Z,17.10
2022-07-29T04:57:37.417Z,15.10
2022-07-29T04:58:37.404Z,15.60
2022-07-29T04:59:37.396Z,15.00
2022-07-29T05:00:37.404Z,14.10
2022-07-29T05:01:37.398Z,15.50
2022-07-29T05:02:37.474Z,14.00
2022-07-29T05:03:37.358Z,14.20
2022-07-29T05:04:37.341Z,14.80
2022-07-29T05:05:37.367Z,15.50
2022-07-29T05:06:37.321Z,16.30
2022-07-29T05:07:37.312Z,14.70
2022-07-29T05:08:37.299Z,17.50
2022-07-29T05:09:37.291Z,14.60
2022-07-29T05:10:37.305Z,13.30
2022-07-29T05:11:37.277Z,13.70
2022-07-29T05:12:37.264Z,14.60
2022-07-29T05:13:45.247Z,16.00
2022-07-29T05:14:37.246Z,14.70
2022-07-29T05:15:37.293Z,13.40
2022-07-29T05:16:37.235Z,14.30
2022-07-29T05:17:37.210Z,13.10
2022-07-29T05:18:37.209Z,15.00
2022-07-29T05:19:39.543Z,13.50
2022-07-29T05:20:37.205Z,14.20
2022-07-29T05:21:37.171Z,12.20
2022-07-29T05:22:37.160Z,11.90
2022-07-29T05:23:37.155Z,11.40
2022-07-29T05:24:37.133Z,15.10
2022-07-29T05:25:44.266Z,14.00
2022-07-29T05:26:37.119Z,11.40
2022-07-29T05:27:37.124Z,11.50
2022-07-29T05:28:37.095Z,11.40
2022-07-29T05:29:44.863Z,12.00
2022-07-29T05:30:37.136Z,12.80
2022-07-29T05:31:37.067Z,12.90
2022-07-29T05:32:37.052Z,11.70
2022-07-29T05:33:37.293Z,11.00
2022-07-29T05:34:37.030Z,12.20
2022-07-29T05:35:37.042Z,10.10
2022-07-29T05:36:37.051Z,10.00
2022-07-29T05:37:37.020Z,11.70
2022-07-29T05:38:37.312Z,11.10
2022-07-29T05:39:48.467Z,11.40
2022-07-29T05:40:36.986Z,10.80
2022-07-29T05:41:36.992Z,9.70
2022-07-29T05:42:36.952Z,9.90
2022-07-29T05:43:36.943Z,11.70
2022-07-29T05:44:36.928Z,10.80
2022-07-29T05:45:50.036Z,11.60
2022-07-29T05:46:37.253Z,12.00
2022-07-29T05:47:36.907Z,11.40
2022-07-29T05:48:36.961Z,11.20
2022-07-29T05:49:36.983Z,9.60
2022-07-29T05:50:36.871Z,10.10
2022-07-29T05:51:36.891Z,8.70
2022-07-29T05:52:36.849Z,13.50
2022-07-29T05:53:36.859Z,9.80
2022-07-29T05:54:36.836Z,12.30
2022-07-29T05:55:36.822Z,10.20
2022-07-29T05:56:36.831Z,9.50
2022-07-29T05:57:36.805Z,10.10
2022-07-29T05:58:37.655Z,8.90
2022-07-29T05:59:36.786Z,8.60
2022-07-29T06:00:36.767Z,8.50
2022-07-29T06:01:36.812Z,8.80
2022-07-29T06:02:36.749Z,8.40
2022-07-29T06:03:36.778Z,9.60
2022-07-29T06:04:36.806Z,9.10
2022-07-29T06:05:36.721Z,12.00
2022-07-29T06:06:36.736Z,11.10
2022-07-29T06:07:36.702Z,9.40
2022-07-29T06:08:36.683Z,10.40
2022-07-29T06:09:36.679Z,11.50
2022-07-29T06:10:36.694Z,7.70
2022-07-29T06:11:36.682Z,6.50
2022-07-29T06:12:36.642Z,8.20
2022-07-29T06:13:36.660Z,9.60
2022-07-29T06:14:36.624Z,10.90
2022-07-29T06:15:36.685Z,8.90
2022-07-29T06:16:36.737Z,9.20
2022-07-29T06:17:36.613Z,7.30
2022-07-29T06:18:36.591Z,9.30
2022-07-29T06:19:36.576Z,10.30
2022-07-29T06:20:36.728Z,7.30
2022-07-29T06:21:41.888Z,11.50
2022-07-29T06:22:36.756Z,8.90
2022-07-29T06:23:36.544Z,8.10
2022-07-29T06:24:36.525Z,9.00
2022-07-29T06:25:36.521Z,7.90
2022-07-29T06:26:39.657Z,7.90
2022-07-29T06:27:36.501Z,8.70
2022-07-29T06:28:36.537Z,7.40
2022-07-29T06:29:36.599Z,8.40
2022-07-29T06:30:36.543Z,8.80
2022-07-29T06:31:36.456Z,7.80
2022-07-29T06:32:41.327Z,9.00
2022-07-29T06:33:36.593Z,9.60
2022-07-29T06:34:36.425Z,8.20
2022-07-29T06:35:39.194Z,7.60
2022-07-29T06:36:36.409Z,9.40
2022-07-29T06:37:36.400Z,6.80
2022-07-29T06:38:37.450Z,7.40
2022-07-29T06:39:36.442Z,6.70
2022-07-29T06:40:36.598Z,9.50
2022-07-29T06:41:40.558Z,7.30
2022-07-29T06:42:38.997Z,8.00
2022-07-29T06:43:51.718Z,8.40
2022-07-29T06:44:39.958Z,6.60
2022-07-29T06:45:39.934Z,6.90
2022-07-29T06:46:36.394Z,7.50
2022-07-29T06:47:36.346Z,8.00
2022-07-29T06:48:36.550Z,9.20
2022-07-29T06:49:36.275Z,7.50
2022-07-29T06:50:36.343Z,7.70
2022-07-29T06:51:38.066Z,6.10
2022-07-29T06:52:37.319Z,8.80
2022-07-29T06:53:36.235Z,7.90
2022-07-29T06:54:36.783Z,8.60
2022-07-29T06:55:36.648Z,9.00
2022-07-29T06:56:39.478Z,5.60
2022-07-29T06:57:36.215Z,6.40
2022-07-29T06:58:36.179Z,7.30
2022-07-29T06:59:36.272Z,9.60
2022-07-29T07:00:36.822Z,9.60
2022-07-29T07:01:36.310Z,9.60
2022-07-29T07:02:36.200Z,8.40
2022-07-29T07:03:36.137Z,7.40
2022-07-29T07:04:36.124Z,7.50
2022-07-29T07:05:36.193Z,8.50
2022-07-29T07:06:37.022Z,6.90
2022-07-29T07:07:36.093Z,8.40
2022-07-29T07:08:36.081Z,8.60
2022-07-29T07:09:40.689Z,7.70
2022-07-29T07:10:36.137Z,7.00
2022-07-29T07:11:36.075Z,7.10
2022-07-29T07:12:36.043Z,7.10
2022-07-29T07:13:36.844Z,6.30
2022-07-29T07:14:36.019Z,6.40
2022-07-29T07:15:38.792Z,6.80
2022-07-29T07:16:36.040Z,6.90
2022-07-29T07:17:35.996Z,8.60
2022-07-29T07:18:35.985Z,5.40
2022-07-29T07:19:35.982Z,6.10
2022-07-29T07:20:36.218Z,7.80
2022-07-29T07:21:36.128Z,9.10
2022-07-29T07:22:38.867Z,8.90
2022-07-29T07:23:35.934Z,6.90
2022-07-29T07:24:35.923Z,7.60
2022-07-29T07:25:35.953Z,7.20
2022-07-29T07:26:35.984Z,7.00
2022-07-29T07:27:35.970Z,8.80
2022-07-29T07:28:35.884Z,7.10
2022-07-29T07:29:35.913Z,8.00
2022-07-29T07:30:35.867Z,7.60
2022-07-29T07:31:35.938Z,8.20
2022-07-29T07:32:35.847Z,6.90
2022-07-29T07:33:35.837Z,7.50
2022-07-29T07:34:35.825Z,6.60
2022-07-29T07:35:35.857Z,5.90
2022-07-29T07:36:35.923Z,7.10
2022-07-29T07:37:35.802Z,5.50
2022-07-29T07:38:35.789Z,7.40
2022-07-29T07:39:35.838Z,6.90
2022-07-29T07:40:35.790Z,6.40
2022-07-29T07:41:36.023Z,8.30
2022-07-29T07:42:35.743Z,9.60
2022-07-29T07:43:35.742Z,7.60
2022-07-29T07:44:51.314Z,8.60
2022-07-29T07:45:35.783Z,7.20
2022-07-29T07:46:35.725Z,6.90
2022-07-29T07:47:35.707Z,5.90
2022-07-29T07:48:35.689Z,8.90
2022-07-29T07:49:35.680Z,7.70
2022-07-29T07:50:35.709Z,5.80
2022-07-29T07:51:35.669Z,5.60
2022-07-29T07:52:35.649Z,6.20
2022-07-29T07:53:35.643Z,6.30
2022-07-29T07:54:35.632Z,7.20
2022-07-29T07:56:00.371Z,7.20
2022-07-29T07:56:35.638Z,7.30
2022-07-29T07:57:35.601Z,7.50
2022-07-29T07:58:35.593Z,6.80
2022-07-29T07:59:35.580Z,9.40
2022-07-29T08:00:35.609Z,6.60
2022-07-29T08:01:48.137Z,7.00
2022-07-29T08:02:35.630Z,5.40
2022-07-29T08:03:35.540Z,8.50
2022-07-29T08:04:35.624Z,6.80
2022-07-29T08:05:35.543Z,7.70
2022-07-29T08:06:35.518Z,10.30
2022-07-29T08:07:35.517Z,8.10
2022-07-29T08:08:35.496Z,5.60
2022-07-29T08:09:36.174Z,5.80
2022-07-29T08:10:35.503Z,7.70
2022-07-29T08:11:37.736Z,7.80
2022-07-29T08:12:35.463Z,7.00
2022-07-29T08:13:35.460Z,7.30
2022-07-29T08:14:35.437Z,7.50
2022-07-29T08:15:35.454Z,6.30
2022-07-29T08:16:35.542Z,7.80
2022-07-29T08:17:35.640Z,6.40
2022-07-29T08:18:35.401Z,6.80
2022-07-29T08:19:35.449Z,6.40
2022-07-29T08:20:35.417Z,6.00
2022-07-29T08:21:35.391Z,6.90
2022-07-29T08:22:35.368Z,7.30
2022-07-29T08:23:46.831Z,7.10
2022-07-29T08:24:35.349Z,5.90
2022-07-29T08:25:38.589Z,5.50
2022-07-29T08:26:35.328Z,5.60
2022-07-29T08:27:44.028Z,5.80
2022-07-29T08:28:35.313Z,6.40
2022-07-29T08:29:35.295Z,5.90
2022-07-29T08:30:35.309Z,5.80
2022-07-29T08:31:35.332Z,5.00
2022-07-29T08:32:52.639Z,5.80
2022-07-29T08:33:35.265Z,6.70
2022-07-29T08:34:35.249Z,7.80
2022-07-29T08:35:36.429Z,6.20
2022-07-29T08:36:35.247Z,7.40
2022-07-29T08:37:35.221Z,10.70
2022-07-29T08:38:35.210Z,5.90
2022-07-29T08:39:35.199Z,8.00
2022-07-29T08:40:35.220Z,8.10
2022-07-29T08:41:35.206Z,8.40
2022-07-29T08:42:35.174Z,6.50
2022-07-29T08:43:35.161Z,7.50
2022-07-29T08:44:35.156Z,6.70
2022-07-29T08:45:35.227Z,6.90
2022-07-29T08:46:35.135Z,6.90
2022-07-29T08:47:35.126Z,7.20
2022-07-29T08:48:35.118Z,6.30
2022-07-29T08:49:35.104Z,7.10
2022-07-29T08:50:35.122Z,9.20
2022-07-29T08:51:35.082Z,8.90
2022-07-29T08:52:35.087Z,6.60
2022-07-29T08:53:35.066Z,5.80
2022-07-29T08:54:35.060Z,6.50
2022-07-29T08:55:35.071Z,7.10
2022-07-29T08:56:35.041Z,6.00
2022-07-29T08:57:35.029Z,8.70
2022-07-29T08:58:36.621Z,8.80
2022-07-29T08:59:35.024Z,7.30
2022-07-29T09:00:35.039Z,5.20
2022-07-29T09:01:36.782Z,7.30
2022-07-29T09:02:35.005Z,6.80
2022-07-29T09:03:35.043Z,9.80
2022-07-29T09:04:34.970Z,10.30
2022-07-29T09:05:39.679Z,6.90
2022-07-29T09:06:34.954Z,7.90
2022-07-29T09:07:34.964Z,7.00
2022-07-29T09:08:34.927Z,7.50
2022-07-29T09:09:34.913Z,6.40
2022-07-29T09:10:34.931Z,6.60
2022-07-29T09:11:34.891Z,6.00
2022-07-29T09:12:37.930Z,7.70
2022-07-29T09:13:34.874Z,8.30
2022-07-29T09:14:34.870Z,6.50
2022-07-29T09:15:34.878Z,10.60
2022-07-29T09:16:52.269Z,13.10
2022-07-29T09:17:34.878Z,7.70
2022-07-29T09:18:34.832Z,11.40
2022-07-29T09:19:34.821Z,6.10
2022-07-29T09:20:34.838Z,5.70
2022-07-29T09:21:34.799Z,7.90
2022-07-29T09:22:38.802Z,8.20
2022-07-29T09:23:34.785Z,6.20
2022-07-29T09:24:34.778Z,5.70
2022-07-29T09:25:34.783Z,6.50
2022-07-29T09:26:34.752Z,7.00
2022-07-29T09:27:34.739Z,7.60
2022-07-29T09:28:34.732Z,7.20
2022-07-29T09:29:36.390Z,6.30
2022-07-29T09:30:34.741Z,8.60
2022-07-29T09:31:34.749Z,8.80
2022-07-29T09:32:34.696Z,7.20
2022-07-29T09:33:34.681Z,7.40
2022-07-29T09:34:34.677Z,5.90
2022-07-29T09:35:34.687Z,6.00
2022-07-29T09:36:34.657Z,9.20
2022-07-29T09:37:34.652Z,6.30
2022-07-29T09:38:34.637Z,7.70
2022-07-29T09:39:34.625Z,7.80
2022-07-29T09:40:34.636Z,5.00
2022-07-29T09:41:34.604Z,8.40
2022-07-29T09:42:34.598Z,7.30
2022-07-29T09:43:34.591Z,6.40
2022-07-29T09:44:34.577Z,7.10
2022-07-29T09:45:34.590Z,6.80
2022-07-29T09:46:34.628Z,7.30
2022-07-29T09:47:34.549Z,6.70
2022-07-29T09:48:34.549Z,6.00
2022-07-29T09:49:34.528Z,5.60
2022-07-29T09:50:34.554Z,5.30
2022-07-29T09:51:38.185Z,8.00
2022-07-29T09:52:34.507Z,6.20
2022-07-29T09:53:34.493Z,6.90
2022-07-29T09:54:34.490Z,7.70
2022-07-29T09:55:34.502Z,7.80
2022-07-29T09:56:34.492Z,5.70
2022-07-29T09:57:34.458Z,7.50
2022-07-29T09:58:34.454Z,7.80
2022-07-29T09:59:34.444Z,6.20
2022-07-29T10:00:34.484Z,8.50
2022-07-29T10:01:34.443Z,7.80
2022-07-29T10:02:34.418Z,6.90
2022-07-29T10:03:34.440Z,6.40
2022-07-29T10:04:34.403Z,8.20
2022-07-29T10:05:36.248Z,7.50
2022-07-29T10:06:34.418Z,7.40
2022-07-29T10:07:34.370Z,10.60
2022-07-29T10:08:34.364Z,5.60
2022-07-29T10:09:34.353Z,5.10
2022-07-29T10:10:34.352Z,5.60
2022-07-29T10:11:48.351Z,10.30
2022-07-29T10:12:34.338Z,5.80
2022-07-29T10:13:34.322Z,6.30
2022-07-29T10:14:34.318Z,8.20
2022-07-29T10:15:34.305Z,7.90
2022-07-29T10:16:34.488Z,7.30
2022-07-29T10:17:34.287Z,8.40
2022-07-29T10:18:34.282Z,5.70
2022-07-29T10:19:34.272Z,8.20
2022-07-29T10:20:34.265Z,6.90
2022-07-29T10:21:35.197Z,5.40
2022-07-29T10:22:52.475Z,7.00
2022-07-29T10:23:46.303Z,10.20
2022-07-29T10:24:34.238Z,6.80
2022-07-29T10:25:34.218Z,8.60
2022-07-29T10:26:34.245Z,8.30
2022-07-29T10:27:34.222Z,6.10
2022-07-29T10:28:34.226Z,5.80
2022-07-29T10:29:34.199Z,6.60
2022-07-29T10:30:34.190Z,6.70
2022-07-29T10:31:34.270Z,4.30
2022-07-29T10:32:34.174Z,7.70
2022-07-29T10:33:34.160Z,5.60
2022-07-29T10:34:34.155Z,6.00
2022-07-29T10:35:34.145Z,6.00
2022-07-29T10:36:34.165Z,8.10
2022-07-29T10:37:36.139Z,5.40
2022-07-29T10:38:34.130Z,9.00
2022-07-29T10:39:41.768Z,4.70
2022-07-29T10:40:34.117Z,5.30
2022-07-29T10:41:43.868Z,6.30
2022-07-29T10:42:34.839Z,5.00
2022-07-29T10:43:34.086Z,6.00
2022-07-29T10:44:34.086Z,5.00
2022-07-29T10:45:34.071Z,6.10
2022-07-29T10:46:34.152Z,5.90
2022-07-29T10:47:35.484Z,8.20
2022-07-29T10:48:34.049Z,6.00
2022-07-29T10:49:34.111Z,4.50
2022-07-29T10:50:34.041Z,4.10
2022-07-29T10:51:34.050Z,9.90
2022-07-29T10:52:34.017Z,8.30
2022-07-29T10:53:34.023Z,5.30
2022-07-29T10:54:34.003Z,5.60
2022-07-29T10:55:33.989Z,8.70
2022-07-29T10:56:34.006Z,6.50
2022-07-29T10:57:53.490Z,6.80
2022-07-29T10:58:33.973Z,6.90
2022-07-29T10:59:36.114Z,4.10
2022-07-29T11:00:33.954Z,4.40
2022-07-29T11:01:37.034Z,4.70
2022-07-29T11:02:42.179Z,4.80
2022-07-29T11:03:33.995Z,3.80
2022-07-29T11:04:33.918Z,6.90
2022-07-29T11:05:40.646Z,7.50
2022-07-29T11:06:33.931Z,4.30
2022-07-29T11:07:41.593Z,5.70
2022-07-29T11:08:33.891Z,5.50
2022-07-29T11:09:37.530Z,8.30
2022-07-29T11:10:33.866Z,5.70
2022-07-29T11:11:33.889Z,5.90
2022-07-29T11:12:33.850Z,6.30
2022-07-29T11:13:37.197Z,7.80
2022-07-29T11:14:33.837Z,6.10
2022-07-29T11:15:33.846Z,9.10
2022-07-29T11:16:33.813Z,5.30
2022-07-29T11:17:47.267Z,6.50
2022-07-29T11:18:33.807Z,7.50
2022-07-29T11:19:33.784Z,11.20
2022-07-29T11:20:33.788Z,4.50
2022-07-29T11:21:53.448Z,8.00
2022-07-29T11:22:33.769Z,3.90
2022-07-29T11:23:34.668Z,5.50
2022-07-29T11:24:35.109Z,7.60
2022-07-29T11:25:42.799Z,3.50
2022-07-29T11:26:33.792Z,4.90
2022-07-29T11:27:33.711Z,4.40
2022-07-29T11:28:33.737Z,7.60
2022-07-29T11:29:33.726Z,6.00
2022-07-29T11:30:33.701Z,6.30
2022-07-29T11:31:33.703Z,5.50
2022-07-29T11:32:33.683Z,5.20
2022-07-29T11:33:54.570Z,4.80
2022-07-29T12:07:15.313Z,4.40
2022-07-29T12:08:14.606Z,6.90
2022-07-29T12:09:14.753Z,5.10
2022-07-29T12:10:19.965Z,5.80
2022-07-29T12:11:12.398Z,6.20
2022-07-29T12:12:12.357Z,8.90
2022-07-29T12:13:12.530Z,7.10
2022-07-29T12:14:12.337Z,6.30
2022-07-29T12:15:12.322Z,7.70
2022-07-29T12:16:14.740Z,7.60
2022-07-29T12:17:12.315Z,6.70
2022-07-29T12:18:12.298Z,5.30
2022-07-29T12:19:12.286Z,6.50
2022-07-29T12:20:12.427Z,6.90
2022-07-29T12:21:12.418Z,4.40
2022-07-29T12:22:12.260Z,6.60
2022-07-29T12:23:12.248Z,6.60
2022-07-29T12:24:12.245Z,7.20
2022-07-29T12:25:33.999Z,4.80
2022-07-29T12:26:21.952Z,6.60
2022-07-29T12:27:12.219Z,8.80
2022-07-29T12:28:14.090Z,5.30
2022-07-29T12:29:15.518Z,8.30
2022-07-29T12:30:12.189Z,5.60
2022-07-29T12:31:12.298Z,6.10
2022-07-29T12:32:14.845Z,8.60
2022-07-29T12:33:12.160Z,6.70
2022-07-29T12:34:12.152Z,9.30
2022-07-29T12:35:12.131Z,6.90
2022-07-29T12:36:17.391Z,6.40
2022-07-29T12:37:12.131Z,4.40
2022-07-29T12:38:12.106Z,6.60
2022-07-29T12:39:12.096Z,4.50
2022-07-29T12:40:12.087Z,9.00
2022-07-29T12:41:12.103Z,6.80
2022-07-29T12:42:13.889Z,5.50
2022-07-29T12:43:12.054Z,6.40
2022-07-29T12:44:12.047Z,6.50
2022-07-29T12:45:12.038Z,7.60
2022-07-29T12:46:12.142Z,4.30
2022-07-29T12:47:12.021Z,7.10
2022-07-29T12:48:12.006Z,5.90
2022-07-29T12:49:12.211Z,6.20
2022-07-29T12:50:12.017Z,5.40
2022-07-29T12:51:12.188Z,7.60
2022-07-29T12:52:11.967Z,5.60
2022-07-29T12:53:11.962Z,5.90
2022-07-29T12:54:11.966Z,5.10
2022-07-29T12:55:11.943Z,6.30
2022-07-29T12:56:33.142Z,6.80
2022-07-29T12:57:20.310Z,6.40
2022-07-29T12:58:11.928Z,6.20
2022-07-29T12:59:11.905Z,5.40
2022-07-29T13:00:11.894Z,4.90
2022-07-29T13:01:17.135Z,5.70
2022-07-29T13:02:11.913Z,5.10
2022-07-29T13:03:11.864Z,7.60
2022-07-29T13:04:11.851Z,7.10
2022-07-29T13:05:11.846Z,5.10
2022-07-29T13:06:11.855Z,5.50
2022-07-29T13:07:11.825Z,7.10
2022-07-29T13:08:20.072Z,5.30
2022-07-29T13:09:11.826Z,5.10
2022-07-29T13:10:11.793Z,7.10
2022-07-29T13:11:11.789Z,5.10
2022-07-29T13:12:11.798Z,10.40
2022-07-29T13:13:11.768Z,6.50
2022-07-29T13:14:11.753Z,6.70
2022-07-29T13:15:11.747Z,8.70
2022-07-29T13:16:11.799Z,5.50
2022-07-29T13:17:11.757Z,4.30
2022-07-29T13:18:11.715Z,8.00
2022-07-29T13:19:11.712Z,10.80
2022-07-29T13:20:11.699Z,5.80
2022-07-29T13:21:11.694Z,5.60
2022-07-29T13:22:11.703Z,5.70
2022-07-29T13:23:11.671Z,7.60
2022-07-29T13:24:11.656Z,7.20
2022-07-29T13:25:11.652Z,4.00
2022-07-29T13:26:11.637Z,5.90
2022-07-29T13:27:11.658Z,7.30
2022-07-29T13:28:11.618Z,7.70
2022-07-29T13:29:11.615Z,5.50
2022-07-29T13:30:11.598Z,5.50
2022-07-29T13:31:11.743Z,5.30
2022-07-29T13:32:11.579Z,4.60
2022-07-29T13:33:11.576Z,6.20
2022-07-29T13:34:11.561Z,5.10
2022-07-29T13:35:11.556Z,6.80
2022-07-29T13:36:11.567Z,9.00
2022-07-29T13:37:11.546Z,8.30
2022-07-29T13:38:11.522Z,6.10
2022-07-29T13:39:11.514Z,4.30